Time;durP1;ratioP1;P1;durP2;ratioP2;P2;SDS_P1;SDS_P2;PMS_P1;PMS_P2;Temp;Humidity;BMP_temperature;BMP_pressure;BME280_temperature;BME280_humidity;BME280_pressure;Samples;Min_cycle;Max_cycle;Signal;HPM_P1;HPM_P2
2021/03/12 00:00:54;;;;;;;15.85;2.28;;;;;;;5.93;100.00;100059.41;5065707;28;20722;-64
2021/03/12 00:03:22;;;;;;;17.63;2.97;;;;;;;5.95;100.00;100059.28;5062678;28;20075;-64
2021/03/12 00:05:51;;;;;;;8.55;1.65;;;;;;;5.94;100.00;100071.78;5070464;28;20055;-65
2021/03/12 00:08:18;;;;;;;8.57;2.42;;;;;;;5.90;100.00;100075.69;5070011;28;20052;-64
2021/03/12 00:10:45;;;;;;;9.82;1.88;;;;;;;5.89;100.00;100081.13;5076217;28;20056;-63
2021/03/12 00:13:12;;;;;;;13.70;2.75;;;;;;;5.87;100.00;100075.91;5076667;28;20466;-63
2021/03/12 00:15:38;;;;;;;9.75;2.10;;;;;;;5.85;100.00;100083.22;5083373;28;20055;-63
2021/03/12 00:18:05;;;;;;;10.45;2.22;;;;;;;5.83;100.00;100090.53;5081162;28;20105;-64
2021/03/12 00:20:33;;;;;;;10.43;2.40;;;;;;;5.81;100.00;100097.78;5082485;28;20056;-63
2021/03/12 00:23:00;;;;;;;15.40;2.42;;;;;;;5.85;100.00;100098.41;5083557;28;20584;-65
2021/03/12 00:25:29;;;;;;;13.13;2.40;;;;;;;5.87;100.00;100112.47;5083429;28;20051;-63
2021/03/12 00:27:55;;;;;;;12.43;2.33;;;;;;;5.88;100.00;100104.34;5081345;28;20382;-63
2021/03/12 00:30:23;;;;;;;9.18;2.50;;;;;;;5.86;100.00;100127.66;5081512;28;20137;-64
2021/03/12 00:32:49;;;;;;;11.13;2.17;;;;;;;5.78;100.00;100120.25;5083595;28;20075;-63
2021/03/12 00:35:15;;;;;;;15.80;2.33;;;;;;;5.79;100.00;100118.44;5081531;28;20052;-64
2021/03/12 00:40:13;;;;;;;5.80;1.92;;;;;;;5.75;100.00;100130.34;5091440;23;20131;-65
2021/03/12 00:42:40;;;;;;;14.02;2.55;;;;;;;5.66;100.00;100139.09;5083372;28;20048;-63
2021/03/12 00:45:09;;;;;;;8.98;2.30;;;;;;;5.63;100.00;100153.53;5083650;28;20044;-63
2021/03/12 00:47:36;;;;;;;15.07;2.72;;;;;;;5.54;100.00;100155.09;5081917;28;20533;-63
2021/03/12 00:50:04;;;;;;;10.07;2.00;;;;;;;5.54;100.00;100159.59;5083404;28;20412;-63
2021/03/12 00:52:30;;;;;;;9.15;2.40;;;;;;;5.56;100.00;100153.13;5083045;28;20036;-63
2021/03/12 00:54:56;;;;;;;11.65;2.38;;;;;;;5.58;100.00;100166.38;5084959;28;20054;-64
2021/03/12 00:57:22;;;;;;;10.88;2.10;;;;;;;5.63;100.00;100176.72;5080025;28;20908;-64
2021/03/12 00:59:48;;;;;;;12.02;2.03;;;;;;;5.66;100.00;100179.13;5084696;28;20179;-64
2021/03/12 01:02:14;;;;;;;9.00;2.22;;;;;;;5.72;100.00;100178.63;5081060;28;20055;-63
2021/03/12 01:04:40;;;;;;;8.63;2.45;;;;;;;5.71;100.00;100166.25;5083247;28;20048;-63
2021/03/12 01:07:07;;;;;;;12.07;2.40;;;;;;;5.76;100.00;100180.09;5081094;28;20064;-64
2021/03/12 01:09:33;;;;;;;9.43;2.10;;;;;;;5.73;100.00;100175.00;5083996;28;20082;-63
2021/03/12 01:11:59;;;;;;;10.30;2.90;;;;;;;5.72;100.00;100175.97;5081964;28;20043;-63
2021/03/12 01:14:25;;;;;;;15.07;2.70;;;;;;;5.71;100.00;100187.63;5082115;28;20044;-63
2021/03/12 01:16:51;;;;;;;15.02;2.25;;;;;;;5.73;100.00;100185.69;5083912;28;20060;-63
2021/03/12 01:19:17;;;;;;;10.75;2.85;;;;;;;5.68;100.00;100182.53;5081945;28;20048;-63
2021/03/12 01:21:44;;;;;;;8.32;2.33;;;;;;;5.71;100.00;100203.63;5081955;28;20516;-63
2021/03/12 01:24:11;;;;;;;13.38;3.70;;;;;;;5.71;100.00;100203.63;5084973;28;20043;-63
2021/03/12 01:26:37;;;;;;;14.15;2.85;;;;;;;5.70;100.00;100210.81;5078976;28;20063;-63
2021/03/12 01:29:03;;;;;;;11.75;2.45;;;;;;;5.74;100.00;100220.28;5076648;28;20473;-63
2021/03/12 01:31:29;;;;;;;15.43;2.47;;;;;;;5.74;100.00;100216.75;5078913;28;20048;-64
2021/03/12 01:33:55;;;;;;;13.27;2.25;;;;;;;5.75;100.00;100215.78;5079144;28;20094;-63
2021/03/12 01:36:21;;;;;;;10.38;2.60;;;;;;;5.72;100.00;100211.53;5079655;28;20131;-65
2021/03/12 01:38:48;;;;;;;13.27;3.22;;;;;;;5.72;100.00;100218.69;5078883;28;20044;-64
2021/03/12 01:41:14;;;;;;;11.68;3.03;;;;;;;5.70;100.00;100225.97;5078837;28;20059;-64
2021/03/12 01:43:40;;;;;;;9.07;2.08;;;;;;;5.65;100.00;100231.66;5079148;28;20052;-64
2021/03/12 01:46:06;;;;;;;10.70;2.38;;;;;;;5.64;100.00;100229.09;5079809;28;20045;-64
2021/03/12 01:48:32;;;;;;;10.55;2.22;;;;;;;5.63;100.00;100236.28;5079545;28;20044;-64
2021/03/12 01:51:00;;;;;;;7.63;2.00;;;;;;;5.61;100.00;100243.56;5079887;28;20063;-63
2021/03/12 01:53:27;;;;;;;8.07;1.90;;;;;;;5.66;100.00;100237.88;5078412;28;20584;-63
2021/03/12 01:55:56;;;;;;;10.88;2.20;;;;;;;5.63;100.00;100238.09;5080543;28;20063;-63
2021/03/12 01:58:22;;;;;;;;;;;;;;;5.59;100.00;100249.03;5079218;28;20052;-63
2021/03/12 02:00:49;;;;;;;12.98;2.28;;;;;;;5.54;100.00;100248.53;5079560;28;19921;-63
2021/03/12 02:03:17;;;;;;;10.23;2.33;;;;;;;5.49;100.00;100247.16;5078918;28;20105;-63
2021/03/12 02:05:43;;;;;;;15.05;2.17;;;;;;;5.50;100.00;100256.88;5079475;28;20044;-63
2021/03/12 02:08:09;;;;;;;10.30;2.33;;;;;;;5.52;100.00;100253.13;5076959;28;20045;-63
2021/03/12 02:13:10;;;;;;;11.57;2.25;;;;;;;5.50;100.00;100255.06;5081571;22;20041;-63
2021/03/12 02:15:40;;;;;;;10.15;2.13;;;;;;;5.45;100.00;100270.59;5078402;28;20048;-65
2021/03/12 02:18:11;;;;;;;10.20;1.92;;;;;;;5.43;100.00;100276.06;5077681;28;20051;-61
2021/03/12 02:20:46;;;;;;;13.25;1.98;;;;;;;5.44;100.00;100275.06;5078643;28;20049;-61
2021/03/12 02:23:22;;;;;;;14.38;2.22;;;;;;;5.42;100.00;100276.16;5078659;28;20052;-61
2021/03/12 02:26:01;;;;;;;12.27;2.28;;;;;;;5.42;100.00;100278.84;5079489;28;20567;-62
2021/03/12 02:28:29;;;;;;;8.50;2.33;;;;;;;5.42;100.00;100273.50;5075651;28;20048;-62
2021/03/12 02:30:57;;;;;;;9.85;2.67;;;;;;;5.42;100.00;100281.50;5078284;28;20094;-62
2021/03/12 02:33:24;;;;;;;13.60;2.20;;;;;;;5.40;100.00;100286.09;5077500;28;20048;-62
2021/03/12 02:35:53;;;;;;;10.18;2.03;;;;;;;5.32;100.00;100277.84;5078460;28;20049;-61
2021/03/12 02:38:22;;;;;;;9.85;2.28;;;;;;;5.27;100.00;100280.84;5075631;28;20143;-61
2021/03/12 02:40:49;;;;;;;17.10;2.25;;;;;;;5.24;100.00;100292.59;5079833;28;20144;-63
2021/03/12 02:43:16;;;;;;;10.95;2.17;;;;;;;5.12;100.00;100285.50;5077451;28;20060;-62
2021/03/12 02:45:44;;;;;;;12.60;2.70;;;;;;;5.12;100.00;100287.34;5076769;28;20105;-62
2021/03/12 02:48:10;;;;;;;10.82;2.08;;;;;;;5.05;100.00;100290.47;5075337;28;20052;-63
2021/03/12 02:50:36;;;;;;;7.40;1.75;;;;;;;4.99;100.00;100290.06;5078812;28;20055;-62
2021/03/12 02:53:03;;;;;;;10.18;1.73;;;;;;;5.03;100.00;100286.19;5075308;28;20044;-62
2021/03/12 02:55:29;;;;;;;9.43;2.20;;;;;;;5.03;100.00;100294.22;5079773;28;20051;-62
2021/03/12 02:57:56;;;;;;;11.57;2.42;;;;;;;4.99;100.00;100292.72;5078026;28;20036;-63
2021/03/12 03:00:22;;;;;;;18.88;2.63;;;;;;;5.03;100.00;100291.53;5076716;28;20052;-63
2021/03/12 03:02:50;;;;;;;12.68;2.40;;;;;;;4.97;100.00;100292.00;5078747;28;20066;-62
2021/03/12 03:05:16;;;;;;;14.35;2.65;;;;;;;4.90;100.00;100295.13;5077352;28;20051;-62
2021/03/12 03:07:47;;;;;;;11.40;2.75;;;;;;;4.87;100.00;100294.50;5076932;28;20051;-62
2021/03/12 03:10:14;;;;;;;11.90;2.20;;;;;;;4.85;100.00;100304.44;5078071;28;20044;-62
2021/03/12 03:12:44;;;;;;;13.80;2.42;;;;;;;4.87;100.00;100302.50;5076429;28;20056;-62
2021/03/12 03:15:11;;;;;;;15.68;3.28;;;;;;;4.79;100.00;100297.72;5077186;28;20044;-62
2021/03/12 03:17:38;;;;;;;12.27;2.47;;;;;;;4.79;100.00;100310.22;5076088;28;20417;-62
2021/03/12 03:20:09;;;;;;;15.35;2.63;;;;;;;4.70;100.00;100309.06;5077348;28;20052;-63
2021/03/12 03:22:35;;;;;;;14.48;3.03;;;;;;;4.69;100.00;100308.19;5074828;28;20056;-62
2021/03/12 03:25:01;;;;;;;15.98;2.78;;;;;;;4.70;100.00;100309.06;5078837;28;20115;-62
2021/03/12 03:27:29;;;;;;;16.92;3.13;;;;;;;4.73;100.00;100319.50;5078332;28;20060;-61
2021/03/12 03:29:55;;;;;;;16.58;2.72;;;;;;;4.74;100.00;100321.19;5077520;28;20114;-62
2021/03/12 03:32:21;;;;;;;14.23;2.60;;;;;;;4.79;100.00;100318.22;5074666;28;20052;-62
2021/03/12 03:34:47;;;;;;;12.55;3.28;;;;;;;4.73;100.00;100314.19;5076463;28;20466;-63
2021/03/12 03:37:13;;;;;;;10.82;2.75;;;;;;;4.71;100.00;100321.41;5076647;28;20127;-63
2021/03/12 03:39:40;;;;;;;15.15;2.80;;;;;;;4.64;100.00;100325.50;5079686;28;20114;-61
2021/03/12 03:42:08;;;;;;;15.20;2.92;;;;;;;4.67;100.00;100334.13;5075468;28;20557;-61
2021/03/12 03:44:36;;;;;;;18.10;3.17;;;;;;;4.64;100.00;100325.50;5077662;28;20515;-62
2021/03/12 03:47:04;;;;;;;18.33;3.00;;;;;;;4.60;100.00;100332.88;5076152;28;20053;-62
2021/03/12 03:49:34;;;;;;;13.23;2.97;;;;;;;4.56;100.00;100339.38;5077139;28;20059;-62
2021/03/12 03:52:02;;;;;;;17.30;3.05;;;;;;;4.52;100.00;100346.75;5074997;28;20071;-63
2021/03/12 03:54:30;;;;;;;14.07;2.95;;;;;;;4.50;100.00;100342.50;5078044;28;20051;-63
2021/03/12 03:56:57;;;;;;;22.42;3.22;;;;;;;4.48;100.00;100353.25;5077187;28;20053;-62
2021/03/12 03:59:24;;;;;;;16.15;2.33;;;;;;;4.55;100.00;100356.34;5078356;28;20052;-63
2021/03/12 04:01:50;;;;;;;21.13;3.17;;;;;;;4.60;100.00;100351.53;5075529;28;20052;-63
2021/03/12 04:04:17;;;;;;;14.65;3.65;;;;;;;4.52;100.00;100344.09;5076714;28;20465;-62
2021/03/12 04:06:44;;;;;;;11.75;2.45;;;;;;;4.49;100.00;100348.78;5076777;28;20109;-63
2021/03/12 04:09:13;;;;;;;12.38;2.60;;;;;;;4.59;100.00;100348.97;5076584;28;20509;-62
2021/03/12 04:11:41;;;;;;;13.10;2.25;;;;;;;4.55;100.00;100353.69;5076405;28;20049;-62
2021/03/12 04:14:07;;;;;;;11.30;2.53;;;;;;;4.59;100.00;100360.47;5077475;28;20065;-62
2021/03/12 04:16:33;;;;;;;10.68;2.55;;;;;;;4.54;100.00;100368.81;5075461;28;20063;-62
2021/03/12 04:19:02;;;;;;;15.48;2.63;;;;;;;4.54;100.00;100359.97;5075306;28;20546;-63
2021/03/12 04:21:28;;;;;;;12.63;2.63;;;;;;;4.61;100.00;100360.38;5076820;28;20041;-62
2021/03/12 04:23:56;;;;;;;19.95;3.33;;;;;;;4.59;100.00;100359.63;5077429;28;20057;-62
2021/03/12 04:26:23;;;;;;;14.68;2.72;;;;;;;4.51;100.00;100361.03;5074822;28;20060;-63
2021/03/12 04:28:50;;;;;;;14.20;2.30;;;;;;;4.51;100.00;100368.19;5074555;28;20059;-62
2021/03/12 04:31:16;;;;;;;16.77;2.60;;;;;;;4.46;100.00;100376.50;5075634;28;20041;-63
2021/03/12 04:33:43;;;;;;;15.43;2.20;;;;;;;4.48;100.00;100366.56;5076320;28;20045;-64
2021/03/12 04:36:10;;;;;;;11.85;2.35;;;;;;;4.48;100.00;100369.25;5074761;28;20036;-62
2021/03/12 04:38:37;;;;;;;15.65;3.08;;;;;;;4.44;100.00;100367.75;5075785;28;20060;-61
2021/03/12 04:41:04;;;;;;;15.02;4.40;;;;;;;4.49;100.00;100370.97;5076463;28;20048;-62
2021/03/12 04:43:31;;;;;;;17.33;5.82;;;;;;;4.41;100.00;100373.31;5076370;28;20055;-61
2021/03/12 04:46:01;;;;;;;20.40;6.82;;;;;;;4.39;100.00;100376.06;5075189;28;20048;-62
2021/03/12 04:48:29;;;;;;;22.05;8.30;;;;;;;4.35;100.00;100376.41;5075636;28;20047;-62
2021/03/12 04:50:55;;;;;;;19.95;6.38;;;;;;;4.36;100.00;100376.28;5076600;28;20091;-63
2021/03/12 04:53:21;;;;;;;16.20;5.45;;;;;;;4.32;100.00;100381.94;5075812;28;21067;-62
2021/03/12 04:55:49;;;;;;;16.42;4.95;;;;;;;4.30;100.00;100370.53;5076415;28;20102;-61
2021/03/12 04:58:16;;;;;;;18.02;4.30;;;;;;;4.28;100.00;100367.13;5074731;28;20052;-63
2021/03/12 05:00:42;;;;;;;14.05;3.47;;;;;;;4.33;100.00;100371.19;5077455;28;20101;-61
2021/03/12 05:03:09;;;;;;;12.18;3.50;;;;;;;4.30;100.00;100365.22;5079922;28;20060;-62
2021/03/12 05:05:35;;;;;;;19.60;3.25;;;;;;;4.32;100.00;100381.94;5105132;22;20060;-63
2021/03/12 05:08:02;;;;;;;15.73;3.10;;;;;;;4.30;100.00;100370.53;5078399;28;20062;-61
2021/03/12 05:10:28;;;;;;;10.40;2.70;;;;;;;4.26;100.00;100377.91;5079872;28;20048;-63
2021/03/12 05:12:56;;;;;;;14.82;2.65;;;;;;;4.24;100.00;100386.94;5079827;28;20052;-62
2021/03/12 05:15:23;;;;;;;14.63;2.90;;;;;;;4.24;100.00;100392.28;5078544;28;20052;-62
2021/03/12 05:17:49;;;;;;;16.90;3.03;;;;;;;4.28;100.00;100394.63;5080581;28;20049;-62
2021/03/12 05:20:16;;;;;;;15.98;2.83;;;;;;;4.21;100.00;100394.22;5079565;28;20040;-63
2021/03/12 05:22:42;;;;;;;14.25;3.03;;;;;;;4.23;100.00;100398.59;5076507;28;20052;-61
2021/03/12 05:25:09;;;;;;;11.55;2.47;;;;;;;4.23;100.00;100394.09;5079095;28;20416;-62
2021/03/12 05:27:35;;;;;;;19.73;3.28;;;;;;;4.19;100.00;100406.75;5079709;28;20155;-64
2021/03/12 05:30:01;;;;;;;13.80;2.67;;;;;;;4.15;100.00;100410.63;5078608;28;20056;-63
2021/03/12 05:32:27;;;;;;;14.18;3.00;;;;;;;4.14;100.00;100408.91;5078735;28;20059;-63
2021/03/12 05:34:53;;;;;;;15.98;2.85;;;;;;;4.18;100.00;100398.88;5078326;28;20048;-62
2021/03/12 05:37:19;;;;;;;13.07;3.53;;;;;;;4.15;100.00;100399.97;5077788;28;20083;-62
2021/03/12 05:39:45;;;;;;;11.13;2.90;;;;;;;4.14;100.00;100405.41;5081004;28;20055;-61
2021/03/12 05:42:12;;;;;;;17.70;3.28;;;;;;;4.13;100.00;100401.88;5077614;28;20048;-62
2021/03/12 05:44:38;;;;;;;14.77;2.58;;;;;;;4.18;100.00;100405.09;5080388;28;20064;-63
2021/03/12 05:47:05;;;;;;;9.02;2.63;;;;;;;4.15;100.00;100407.97;5077010;28;20094;-62
2021/03/12 05:49:34;;;;;;;14.38;3.17;;;;;;;4.11;100.00;100413.56;5076486;28;20055;-62
2021/03/12 05:52:00;;;;;;;10.90;2.58;;;;;;;4.10;100.00;100411.91;5079348;28;20052;-62
2021/03/12 05:54:27;;;;;;;18.55;2.75;;;;;;;4.12;100.00;100404.63;5079409;28;20050;-61
2021/03/12 05:56:53;;;;;;;15.82;3.15;;;;;;;4.08;100.00;100409.34;5080351;28;20047;-62
2021/03/12 05:59:19;;;;;;;16.98;2.90;;;;;;;4.11;100.00;100403.78;5079167;28;20098;-63
2021/03/12 06:01:45;;;;;;;13.40;2.28;;;;;;;4.10;100.00;100411.91;5075789;28;20097;-62
2021/03/12 06:04:12;;;;;;;13.32;3.00;;;;;;;4.10;100.00;100411.91;5078465;28;20053;-62
2021/03/12 06:06:38;;;;;;;13.48;2.58;;;;;;;4.10;100.00;100407.41;5079190;28;20055;-61
2021/03/12 06:09:05;;;;;;;18.75;3.47;;;;;;;4.13;100.00;100412.53;5077891;28;20051;-63
2021/03/12 06:11:33;;;;;;;10.27;2.60;;;;;;;4.17;100.00;100419.34;5078897;28;20052;-62
2021/03/12 06:13:59;;;;;;;17.67;3.05;;;;;;;4.14;100.00;100416.91;5079306;28;20094;-63
2021/03/12 06:16:26;;;;;;;13.70;3.45;;;;;;;4.13;100.00;100411.69;5076265;28;20109;-63
2021/03/12 06:19:10;;;;;;;9.88;2.53;;;;;;;4.14;100.00;100416.91;5077184;28;20048;-63
2021/03/12 06:21:37;;;;;;;19.38;3.00;;;;;;;4.13;100.00;100419.66;5079089;28;20044;-62
2021/03/12 06:24:25;;;;;;;21.75;3.13;;;;;;;4.19;100.00;100422.75;5077958;28;20059;-62
2021/03/12 06:26:52;;;;;;;13.52;2.55;;;;;;;4.26;100.00;100419.69;5080248;28;20403;-62
2021/03/12 06:29:18;;;;;;;15.07;2.40;;;;;;;4.29;100.00;100411.47;5080924;28;20059;-62
2021/03/12 06:31:51;;;;;;;12.45;2.78;;;;;;;4.29;100.00;100411.47;5100169;22;20063;-62
2021/03/12 06:34:18;;;;;;;13.77;2.40;;;;;;;4.33;100.00;100415.63;5079260;28;20048;-62
2021/03/12 06:36:44;;;;;;;14.25;2.50;;;;;;;4.30;100.00;100411.38;5079963;28;20079;-62
2021/03/12 06:39:10;;;;;;;13.32;2.50;;;;;;;4.35;100.00;100417.22;5078789;28;20056;-62
2021/03/12 06:41:37;;;;;;;11.75;2.63;;;;;;;4.34;100.00;100422.66;5079515;28;20546;-62
2021/03/12 06:44:26;;;;;;;12.75;2.60;;;;;;;4.36;100.00;100412.75;5077952;28;20052;-60
2021/03/12 06:46:52;;;;;;;14.73;2.75;;;;;;;4.40;100.00;100408.88;5077822;28;20048;-62
2021/03/12 06:49:18;;;;;;;11.02;2.53;;;;;;;4.46;100.00;100412.94;5076646;28;20404;-62
2021/03/12 06:51:58;;;;;;;16.42;3.95;;;;;;;4.51;100.00;100416.16;5077530;28;20125;-63
2021/03/12 06:54:24;;;;;;;;;;;;;;;4.54;100.00;100422.09;5077533;28;20060;-62
2021/03/12 06:56:50;;;;;;;17.33;2.60;;;;;;;4.55;100.00;100412.31;5078547;28;19940;-63
2021/03/12 06:59:27;;;;;;;9.70;2.67;;;;;;;4.56;100.00;100419.34;5076088;28;20059;-62
2021/03/12 07:01:57;;;;;;;10.77;2.65;;;;;;;4.55;100.00;100422.97;5076517;28;20056;-62
2021/03/12 07:04:23;;;;;;;10.98;2.22;;;;;;;4.57;100.00;100421.88;5076719;28;20048;-61
2021/03/12 07:06:49;;;;;;;17.90;2.40;;;;;;;4.55;100.00;100430.97;5075942;28;20447;-62
2021/03/12 07:09:16;;;;;;;17.98;2.80;;;;;;;4.60;100.00;100425.31;5075272;28;20048;-62
2021/03/12 07:11:42;;;;;;;19.92;2.58;;;;;;;4.62;100.00;100420.72;5079026;28;20048;-62
2021/03/12 07:14:08;;;;;;;14.90;4.03;;;;;;;4.62;100.00;100428.72;5077737;28;20055;-62
2021/03/12 07:16:35;;;;;;;15.70;3.03;;;;;;;4.65;100.00;100425.81;5078903;28;20066;-62
2021/03/12 07:19:01;;;;;;;16.40;3.28;;;;;;;4.68;100.00;100425.59;5075701;28;20040;-61
2021/03/12 07:21:29;;;;;;;16.35;3.50;;;;;;;4.68;100.00;100430.94;5077158;28;20032;-63
2021/03/12 07:23:58;;;;;;;12.77;3.08;;;;;;;4.71;100.00;100430.72;5077084;28;20048;-62
2021/03/12 07:26:25;;;;;;;19.45;3.30;;;;;;;4.76;100.00;100423.25;5075143;28;20051;-62
2021/03/12 07:28:57;;;;;;;13.95;3.22;;;;;;;4.76;100.00;100417.94;5075633;28;20503;-62
2021/03/12 07:31:32;;;;;;;13.20;2.80;;;;;;;4.81;100.00;100422.94;5075294;28;20049;-61
2021/03/12 07:36:28;;;;;;;9.27;2.95;;;;;;;4.93;100.00;100405.19;5058858;22;20045;-61
2021/03/12 07:42:03;;;;;;;22.88;3.45;;;;;;;5.00;100.00;100415.28;5023552;22;20876;-62
2021/03/12 07:44:30;;;;;;;9.95;2.50;;;;;;;5.08;100.00;100414.75;5076158;28;20099;-63
2021/03/12 07:46:57;;;;;;;12.38;2.97;;;;;;;5.17;100.00;100405.25;5076095;28;20044;-62
2021/03/12 07:49:36;;;;;;;11.85;3.22;;;;;;;5.18;100.00;100410.47;5076497;28;20055;-62
2021/03/12 07:52:05;;;;;;;12.40;3.05;;;;;;;5.23;100.00;100424.31;5075342;28;20048;-62
2021/03/12 07:54:45;;;;;;;16.10;3.10;;;;;;;5.33;100.00;100408.47;5076473;28;20045;-62
2021/03/12 07:57:12;;;;;;;14.13;3.00;;;;;;;5.36;100.00;100407.38;5073291;28;20539;-62
2021/03/12 07:59:57;;;;;;;20.05;3.42;;;;;;;5.33;100.00;100402.25;5076042;28;20098;-62
2021/03/12 08:02:23;;;;;;;12.68;3.08;;;;;;;5.37;100.00;100396.59;5075571;28;20064;-63
2021/03/12 08:04:49;;;;;;;16.42;3.33;;;;;;;5.44;100.00;100394.31;5075775;28;20043;-62
2021/03/12 08:07:35;;;;;;;16.63;3.33;;;;;;;5.43;100.00;100395.28;5073162;28;20095;-61
2021/03/12 08:10:15;;;;;;;17.17;4.43;;;;;;;5.63;100.00;100401.81;5074649;28;20055;-61
2021/03/12 08:12:41;;;;;;;22.17;3.58;;;;;;;5.80;100.00;100395.19;5076088;28;20413;-62
2021/03/12 08:15:13;;;;;;;16.02;3.50;;;;;;;5.63;100.00;100393.78;5076072;28;20060;-62
2021/03/12 08:17:39;;;;;;;20.35;4.10;;;;;;;5.73;100.00;100383.28;5073604;28;20052;-62
2021/03/12 08:20:26;;;;;;;16.88;3.30;;;;;;;5.80;100.00;100395.19;5075765;28;20048;-62
2021/03/12 08:22:54;;;;;;;23.58;3.95;;;;;;;5.91;100.00;100376.50;5075580;28;20158;-62
2021/03/12 08:25:53;;;;;;;16.02;3.35;;;;;;;6.04;100.00;100381.81;5074563;28;20055;-62
2021/03/12 08:28:40;;;;;;;;;;;;;;;6.09;100.00;100382.28;5061920;28;20083;-61
2021/03/12 08:31:06;;;;;;;21.30;4.00;;;;;;;6.16;100.00;100390.69;5068889;28;20373;-62
2021/03/12 08:33:37;;;;;;;17.52;3.60;;;;;;;6.22;100.00;100384.84;5075659;28;20063;-62
2021/03/12 08:36:05;;;;;;;19.63;3.47;;;;;;;6.22;100.00;100374.16;5076797;28;20057;-61
2021/03/12 08:38:42;;;;;;;17.35;3.42;;;;;;;6.22;100.00;100376.84;5076804;28;20131;-62
2021/03/12 08:41:17;;;;;;;16.52;4.05;;;;;;;6.27;100.00;100373.81;5076827;28;20056;-61
2021/03/12 08:43:47;;;;;;;25.80;5.13;;;;;;;6.39;100.00;100385.34;5077915;28;20463;-62
2021/03/12 08:46:16;;;;;;;20.00;4.25;;;;;;;6.38;100.00;100384.50;5078214;28;20052;-63
2021/03/12 08:48:44;;;;;;;22.88;4.28;;;;;;;6.50;100.00;100372.00;5078362;28;20080;-63
2021/03/12 08:51:13;;;;;;;25.50;4.35;;;;;;;6.72;100.00;100386.34;5081406;28;20528;-62
2021/03/12 08:53:40;;;;;;;;;;;;;;;6.72;100.00;100379.16;5082178;28;20059;-62
2021/03/12 08:56:09;;;;;;;19.75;4.03;;;;;;;6.83;100.00;100351.53;5080716;28;19927;-62
2021/03/12 08:58:37;;;;;;;19.52;4.28;;;;;;;6.79;100.00;100377.69;5080367;28;20060;-61
2021/03/12 09:01:10;;;;;;;17.08;3.58;;;;;;;6.98;100.00;100371.69;5080678;28;20063;-61
2021/03/12 09:03:36;;;;;;;15.45;4.13;;;;;;;7.33;100.00;100380.47;5082364;28;20508;-62
2021/03/12 09:06:03;;;;;;;17.42;3.67;;;;;;;7.25;100.00;100375.75;5081898;28;20045;-61
2021/03/12 09:08:30;;;;;;;19.15;4.07;;;;;;;7.20;100.00;100369.94;5079346;28;20148;-62
2021/03/12 09:10:57;;;;;;;17.98;4.32;;;;;;;7.07;100.00;100369.25;5081663;28;20048;-62
2021/03/12 09:13:26;;;;;;;27.45;3.97;;;;;;;7.11;100.00;100370.69;5081187;28;20067;-62
2021/03/12 09:15:52;;;;;;;18.92;4.38;;;;;;;7.21;100.00;100373.47;5081026;28;20135;-61
2021/03/12 09:18:20;;;;;;;22.45;4.22;;;;;;;7.32;100.00;100374.28;5078659;28;20051;-62
2021/03/12 09:20:50;;;;;;;28.60;5.35;;;;;;;7.28;100.00;100356.75;5080997;28;20503;-62
2021/03/12 09:23:16;;;;;;;26.48;5.00;;;;;;;7.31;100.00;100367.22;5078358;28;20090;-62
2021/03/12 09:25:42;;;;;;;22.00;4.72;;;;;;;7.56;100.00;100362.50;5078358;28;20079;-62
2021/03/12 09:28:10;;;;;;;19.67;4.10;;;;;;;7.56;100.00;100354.47;5075485;28;20064;-62
2021/03/12 09:30:38;;;;;;;26.17;4.30;;;;;;;7.59;100.00;100348.84;5079416;28;20140;-62
2021/03/12 09:33:07;;;;;;;20.92;4.47;;;;;;;7.65;100.00;100352.84;5080823;28;20052;-62
2021/03/12 09:35:39;;;;;;;20.13;4.45;;;;;;;7.44;100.00;100355.50;5081285;28;20105;-62
2021/03/12 09:38:05;;;;;;;16.38;3.90;;;;;;;7.18;100.00;100339.78;5079525;28;20468;-63
2021/03/12 09:40:39;;;;;;;18.48;3.75;;;;;;;6.95;100.00;100337.19;5082121;28;20060;-63
2021/03/12 09:43:06;;;;;;;22.15;4.65;;;;;;;6.84;100.00;100334.50;5080624;28;20071;-63
2021/03/12 09:45:32;;;;;;;15.02;4.40;;;;;;;6.78;100.00;100340.38;5081415;28;20481;-63
2021/03/12 09:47:59;;;;;;;22.70;5.20;;;;;;;6.88;100.00;100338.66;5079031;28;20044;-63
2021/03/12 09:50:26;;;;;;;17.95;4.40;;;;;;;6.99;100.00;100329.72;5079530;28;20036;-61
2021/03/12 09:52:54;;;;;;;25.95;4.72;;;;;;;7.24;100.00;100317.84;5080957;28;20097;-62
2021/03/12 09:55:20;;;;;;;20.35;4.85;;;;;;;7.35;100.00;100315.13;5078828;28;20052;-62
2021/03/12 09:57:46;;;;;;;24.17;4.70;;;;;;;7.50;100.00;100314.81;5080126;28;20113;-61
2021/03/12 10:00:21;;;;;;;22.63;4.72;;;;;;;7.46;100.00;100303.50;5080409;28;20044;-63
2021/03/12 10:02:55;;;;;;;16.80;4.50;;;;;;;7.44;100.00;100296.59;5081168;28;20052;-62
2021/03/12 10:05:24;;;;;;;28.10;5.38;;;;;;;7.50;100.00;100283.53;5080439;28;20923;-62
2021/03/12 10:07:51;;;;;;;19.08;4.60;;;;;;;7.48;100.00;100281.94;5080764;28;20063;-63
2021/03/12 10:10:23;;;;;;;23.95;4.35;;;;;;;7.27;100.00;100280.09;5079918;28;20048;-62
2021/03/12 10:12:50;;;;;;;21.77;4.50;;;;;;;7.19;100.00;100283.44;5077082;28;20045;-62
2021/03/12 10:15:18;;;;;;;20.42;5.40;;;;;;;7.12;100.00;100289.44;5076343;28;20051;-63
2021/03/12 10:17:46;;;;;;;26.23;6.15;;;;;;;7.01;100.00;100275.13;5073794;28;20144;-63
2021/03/12 10:20:25;;;;;;;17.85;4.88;;;;;;;7.03;100.00;100268.81;5075333;28;20427;-62
2021/03/12 10:22:54;;;;;;;23.52;5.55;;;;;;;6.91;100.00;100276.88;5077960;28;20047;-63
2021/03/12 10:25:23;;;;;;;26.13;5.30;;;;;;;6.86;100.00;100279.09;5075690;28;20086;-62
2021/03/12 10:27:51;;;;;;;18.92;5.15;;;;;;;6.72;100.00;100277.53;5076406;28;20055;-62
2021/03/12 10:30:19;;;;;;;23.65;5.13;;;;;;;6.45;100.00;100280.63;5077184;28;20497;-62
2021/03/12 10:32:48;;;;;;;22.38;4.57;;;;;;;6.31;100.00;100293.25;5078417;28;20044;-61
2021/03/12 10:35:29;;;;;;;18.75;5.03;;;;;;;6.20;100.00;100279.91;5075983;28;20067;-61
2021/03/12 10:37:57;;;;;;;14.55;4.72;;;;;;;6.09;100.00;100296.78;5080326;28;20059;-62
2021/03/12 10:40:25;;;;;;;16.65;5.20;;;;;;;5.86;100.00;100282.56;5076836;28;20051;-61
2021/03/12 10:42:51;;;;;;;13.27;4.80;;;;;;;5.85;100.00;100280.00;5079688;28;20062;-61
2021/03/12 10:45:23;;;;;;;12.13;3.88;;;;;;;5.87;100.00;100268.22;5078894;28;20048;-62
2021/03/12 10:48:00;;;;;;;14.95;4.13;;;;;;;5.93;100.00;100273.09;5079158;28;20110;-62
2021/03/12 10:50:29;;;;;;;17.08;4.82;;;;;;;5.97;100.00;100247.84;5078814;28;20352;-63
2021/03/12 10:53:06;;;;;;;20.17;4.45;;;;;;;5.95;100.00;100272.97;5078642;28;20049;-62
2021/03/12 10:55:33;;;;;;;16.15;4.30;;;;;;;5.91;100.00;100269.69;5077984;28;20044;-62
2021/03/12 10:58:00;;;;;;;17.15;4.53;;;;;;;5.95;100.00;100265.81;5076982;28;20086;-63
2021/03/12 11:00:27;;;;;;;16.63;4.55;;;;;;;6.02;100.00;100276.03;5078225;28;20047;-63
2021/03/12 11:02:57;;;;;;;16.23;4.57;;;;;;;6.10;100.00;100266.44;5077072;28;20134;-63
2021/03/12 11:05:23;;;;;;;18.27;4.90;;;;;;;6.13;100.00;100263.50;5076906;28;20498;-63
2021/03/12 11:07:51;;;;;;;19.63;4.28;;;;;;;6.26;100.00;100268.75;5079702;28;20044;-63
2021/03/12 11:10:17;;;;;;;20.52;5.68;;;;;;;6.27;100.00;100256.22;5079606;28;20123;-64
2021/03/12 11:15:11;;;;;;;16.20;4.57;;;;;;;6.45;100.00;100251.22;5034880;23;20451;-64
2021/03/12 11:17:40;;;;;;;17.35;4.88;;;;;;;6.54;100.00;100253.16;5078570;28;20493;-64
2021/03/12 11:20:08;;;;;;;19.98;4.63;;;;;;;6.55;100.00;100251.31;5079088;28;20045;-63
2021/03/12 11:22:34;;;;;;;9.70;3.60;;;;;;;6.61;100.00;100245.47;5080043;28;20059;-63
2021/03/12 11:25:01;;;;;;;21.20;4.40;;;;;;;6.66;100.00;100244.09;5078341;28;20143;-63
2021/03/12 11:27:27;;;;;;;14.93;4.18;;;;;;;6.75;100.00;100247.00;5079671;28;20059;-63
2021/03/12 11:29:54;;;;;;;17.33;4.63;;;;;;;6.71;100.00;100233.03;5078808;28;20048;-63
2021/03/12 11:32:20;;;;;;;9.60;3.40;;;;;;;6.68;100.00;100235.97;5078855;28;20060;-62
2021/03/12 11:34:46;;;;;;;16.00;4.82;;;;;;;6.73;100.00;100230.22;5079830;28;20082;-63
2021/03/12 11:37:12;;;;;;;13.50;4.55;;;;;;;6.78;100.00;100230.72;5078522;28;20452;-63